Flight Track Log - Related Links

Times and Time Zones

All times are in EDT time to prevent confusion due to time zone crossing. See the UAL4431 flight status page for this flight to view local times or setup timezone preferences in your user account.

Time Position Orientation Groundspeed Altitude Reporting Facility
EDT Latitude Longitude Course Direction KTS MPH feet Rate Location/Type
Sun 10:12:54 PM 29.9714 -95.2653 100° East 191 220 2,000  Level Houston Center
Sun 10:13:49 PM 29.9733 -95.1975 88° East 252 290 3,700 1,899 Climbing Houston Center
Sun 10:14:13 PM 29.9742 -95.1700 88° East 229 264 4,500 2,364 Climbing Houston Center
Sun 10:14:55 PM 29.9753 -95.1056 89° East 265 305 6,300 2,323 Climbing Houston Center
Sun 10:15:00 PM 29.9834 -94.9119 90° East  Level FlightAware Approximate
Sun 10:15:15 PM 29.9756 -95.0839 89° East 264 304 6,900  Level Houston Center
Sun 10:15:57 PM 29.9756 -95.0161 90° East 280 322 8,300 1,869 Climbing Houston Center
Sun 10:16:00 PM 29.9834 -94.8065 90° East  Level FlightAware Approximate
Sun 10:16:16 PM 29.9775 -94.9953 84° East 273 314 8,800  Level Houston Center
Sun 10:17:00 PM 29.9834 -94.7011 90° East  Level FlightAware Approximate
Sun 10:17:17 PM 29.9794 -94.8994 89° East 293 337 10,300  Level Houston Center
Sun 10:18:18 PM 29.9825 -94.7911 88° East 333 383 11,000 738 Climbing Houston Center
Sun 10:19:19 PM 29.9847 -94.6747 89° East 357 411 11,800 738 Climbing Houston Center
Sun 10:20:20 PM 29.9869 -94.5503 89° East 382 440 12,500 836 Climbing Houston Center
Sun 10:21:21 PM 29.9919 -94.4233 87° East 390 449 13,500 984 Climbing Houston Center
Sun 10:22:22 PM 29.9972 -94.2975 87° East 394 453 14,500 1,033 Climbing Houston Center
Sun 10:23:23 PM 30.0122 -94.1722 82° East 398 458 15,600 1,033 Climbing Houston Center
Sun 10:24:24 PM 30.0275 -94.0467 82° East 397 457 16,600 1,082 Climbing Houston Center
Sun 10:25:25 PM 30.0475 -93.8947 81° East 400 460 17,800 1,082 Climbing Houston Center
Sun 10:26:26 PM 30.0619 -93.7686 82° East 400 460 18,800 984 Climbing Houston Center
Sun 10:27:27 PM 30.0778 -93.6394 82° East 408 470 19,800 1,033 Climbing Houston Center
Sun 10:28:28 PM 30.0925 -93.5103 82° East 410 472 20,900 1,024 Climbing Houston Center
Sun 10:29:30 PM 30.1075 -93.3792 82° East 416 479 21,900 976 Climbing Houston Center
Sun 10:30:31 PM 30.1228 -93.2469 82° East 420 483 22,900 541 Climbing Houston Center
Sun 10:31:32 PM 30.1383 -93.1117 82° East 427 491 23,000 49 Climbing Houston Center
Sun 10:32:33 PM 30.1467 -92.9678 86° East 449 517 23,000 -49 Level Houston Center
Sun 10:33:34 PM 30.1564 -92.7914 86° East 460 529 22,900 -689 Descending Houston Center
Sun 10:35:36 PM 30.1753 -92.5017 86° East 448 516 20,900 -1,945 Descending Houston Center
Sun 10:36:36 PM 30.2681 -92.4264 35° Northeast 411 473 17,000 -4,017 Descending Houston Center
Sun 10:37:37 PM 30.3650 -92.3764 24° Northeast 388 447 12,800 -3,148 Descending Houston Center
Sun 10:38:38 PM 30.4514 -92.3353 22° Northeast 364 419 10,600 -2,213 Descending Houston Center
Sun 10:39:39 PM 30.4603 -92.2533 83° East 276 318 8,300 -2,410 Descending Houston Center
Sun 10:40:40 PM 30.4031 -92.1933 138° Southeast 234 269 5,700 -2,902 Descending Houston Center
Sun 10:41:41 PM 30.3603 -92.1494 138° Southeast 213 245 2,400 -1,770 Descending Houston Center
Sun 10:42:42 PM 30.3231 -92.1142 141° Southeast 203 234 2,100 -295 Descending Houston Center

Login

Don't have an account? Register now (free) for customized features, flight alerts, and more!